Amsterdam, New York
Current Conditions -  °F | °C
As of 7:15 AM on Thursday 29 Jan 2015 (Local Time) from KNY0 Reporting Station
Clear Clear  
Wind Chill: -13°   Ceiling: Unl
Heat Index: -3°   Visibility: 10mi
Dew Point: -8°   Wind: 5mph
Humidity: 78%   Direction: 50°NE
Pressure: 30.27"   Gusts: NA
Location:  42.94°N, 74.19°W
Report Text: KNY0 291215Z AUTO 05004KT 10SM CLR M19/M22 A3027 RMK AO2 T11931222
Loading
Personal Weather Stations






























Interactive Weather Map New forecast layout! Learn more

10-Day Weather Forecast

Advertisements
Track Severe Weather on mobile